Time;durP1;ratioP1;P1;durP2;ratioP2;P2;SDS_P1;SDS_P2;PMS_P1;PMS_P2;Temp;Humidity;BMP_temperature;BMP_pressure;BME280_temperature;BME280_humidity;BME280_pressure;Samples;Min_cycle;Max_cycle;Signal;HPM_P1;HPM_P2
2023/01/24 00:01:41;;;;;;;13.68;9.25;;;3.20;99.90;;;;;;5052069;28;20095;-61
2023/01/24 00:04:06;;;;;;;12.40;7.85;;;3.20;99.90;;;;;;5050608;28;20045;-61
2023/01/24 00:06:32;;;;;;;16.20;9.30;;;3.20;99.90;;;;;;5052121;28;20041;-62
2023/01/24 00:08:58;;;;;;;13.02;8.23;;;3.20;99.90;;;;;;5051801;28;20037;-61
2023/01/24 00:11:23;;;;;;;13.20;8.13;;;3.20;99.90;;;;;;5050118;28;20037;-61
2023/01/24 00:13:49;;;;;;;13.18;8.25;;;3.20;99.90;;;;;;5051681;28;20044;-61
2023/01/24 00:16:18;;;;;;;12.18;7.90;;;3.20;99.90;;;;;;5051284;28;20044;-61
2023/01/24 00:18:44;;;;;;;12.38;8.68;;;3.20;99.90;;;;;;5034571;28;20468;-61
2023/01/24 00:21:16;;;;;;;12.60;8.63;;;3.20;99.90;;;;;;5051002;28;20051;-61
2023/01/24 00:23:43;;;;;;;14.00;8.30;;;3.20;99.90;;;;;;5051594;28;20477;-61
2023/01/24 00:26:09;;;;;;;13.10;8.13;;;3.20;99.90;;;;;;5034024;28;20441;-61
2023/01/24 00:28:35;;;;;;;13.02;8.30;;;3.20;99.90;;;;;;5051363;28;20040;-62
2023/01/24 00:31:01;;;;;;;12.13;8.05;;;3.10;99.90;;;;;;5052790;28;20037;-61
2023/01/24 00:33:26;;;;;;;14.52;9.18;;;3.20;99.90;;;;;;5050523;28;20095;-62
2023/01/24 00:35:52;;;;;;;13.95;8.52;;;3.20;99.90;;;;;;5051222;28;20045;-61
2023/01/24 00:38:20;;;;;;;14.98;8.48;;;3.20;99.90;;;;;;5052201;28;20048;-62
2023/01/24 00:40:46;;;;;;;15.10;8.65;;;3.20;99.90;;;;;;5051952;28;20124;-61
2023/01/24 00:43:12;;;;;;;14.50;9.07;;;3.20;99.90;;;;;;5050667;28;20482;-61
2023/01/24 00:45:38;;;;;;;13.20;8.68;;;3.20;99.90;;;;;;5051291;28;20041;-62
2023/01/24 00:48:06;;;;;;;13.15;8.13;;;3.20;99.90;;;;;;5033483;28;20056;-61
2023/01/24 00:50:32;;;;;;;14.27;9.45;;;3.20;99.90;;;;;;5051450;28;20033;-62
2023/01/24 00:52:58;;;;;;;14.48;8.35;;;3.10;99.90;;;;;;5052457;28;20036;-62
2023/01/24 00:55:24;;;;;;;15.18;8.60;;;3.20;99.90;;;;;;5033485;28;20045;-61
2023/01/24 00:57:50;;;;;;;14.80;9.35;;;3.20;99.90;;;;;;5051322;28;20040;-62
2023/01/24 01:00:16;;;;;;;13.20;9.10;;;3.10;99.90;;;;;;5049735;28;20485;-61
2023/01/24 01:02:42;;;;;;;14.98;8.25;;;3.10;99.90;;;;;;5051192;28;20045;-62
2023/01/24 01:05:08;;;;;;;13.73;8.65;;;3.20;99.90;;;;;;5051521;28;20041;-62
2023/01/24 01:07:34;;;;;;;14.57;9.30;;;3.20;99.90;;;;;;5050312;28;20047;-61
2023/01/24 01:10:00;;;;;;;16.77;9.73;;;3.20;99.90;;;;;;5051040;28;20566;-62
2023/01/24 01:12:25;;;;;;;16.02;8.43;;;3.20;99.90;;;;;;5050365;28;20033;-62
2023/01/24 01:14:51;;;;;;;13.75;9.20;;;3.20;99.90;;;;;;5050554;28;20045;-62
2023/01/24 01:17:17;;;;;;;15.95;8.73;;;3.10;99.90;;;;;;5050630;28;20489;-61
2023/01/24 01:19:43;;;;;;;16.48;10.27;;;3.10;99.90;;;;;;5051113;28;20043;-61
2023/01/24 01:22:09;;;;;;;14.40;8.95;;;3.20;99.90;;;;;;5049834;28;20493;-62
2023/01/24 01:24:34;;;;;;;13.80;8.75;;;3.10;99.90;;;;;;5053011;28;20574;-62
2023/01/24 01:27:00;;;;;;;14.68;9.13;;;3.20;99.90;;;;;;5054935;28;20127;-62
2023/01/24 01:29:26;;;;;;;14.57;9.48;;;3.20;99.90;;;;;;5036860;28;20516;-61
2023/01/24 01:31:52;;;;;;;14.63;9.20;;;3.20;99.90;;;;;;5054769;28;20037;-61
2023/01/24 01:34:17;;;;;;;14.60;9.23;;;3.10;99.90;;;;;;5055386;28;20048;-61
2023/01/24 01:36:43;;;;;;;16.15;9.65;;;3.10;99.90;;;;;;5053711;28;20045;-61
2023/01/24 01:39:09;;;;;;;17.20;9.63;;;3.20;99.90;;;;;;5054352;28;20134;-61
2023/01/24 01:41:35;;;;;;;14.10;8.48;;;3.20;99.90;;;;;;5054894;28;20044;-61
2023/01/24 01:44:40;;;;;;;14.52;9.45;;;3.10;99.90;;;;;;5037216;28;20040;-61
2023/01/24 01:47:23;;;;;;;16.35;9.57;;;3.20;99.90;;;;;;5054317;28;20566;-61
2023/01/24 01:50:29;;;;;;;16.20;9.73;;;3.20;99.90;;;;;;5036970;28;20044;-61
2023/01/24 01:52:56;;;;;;;17.48;9.25;;;3.20;99.90;;;;;;5054588;28;20505;-62
2023/01/24 01:55:27;;;;;;;16.17;10.13;;;3.20;99.90;;;;;;5054073;28;20059;-61
2023/01/24 01:57:54;;;;;;;15.70;9.90;;;3.10;99.90;;;;;;5037270;28;20040;-62
2023/01/24 02:00:26;;;;;;;16.60;10.50;;;3.20;99.90;;;;;;5037007;28;20036;-61
2023/01/24 02:05:59;;;;;;;16.60;9.48;;;3.20;99.90;;;;;;5055737;28;20136;-62
2023/01/24 02:08:26;;;;;;;18.38;11.38;;;3.20;99.90;;;;;;5054721;28;20179;-61
2023/01/24 02:13:43;;;;;;;15.05;9.18;;;3.20;99.90;;;;;;5054388;28;20465;-61
2023/01/24 02:16:13;;;;;;;15.68;10.35;;;3.10;99.90;;;;;;5054977;28;20077;-61
2023/01/24 02:18:40;;;;;;;15.82;10.15;;;3.10;99.90;;;;;;5053066;28;20037;-62
2023/01/24 02:21:15;;;;;;;18.65;10.68;;;3.20;99.90;;;;;;5054602;28;20044;-62
2023/01/24 02:23:52;;;;;;;17.35;9.75;;;3.20;99.90;;;;;;5054140;28;20041;-61
2023/01/24 02:26:23;;;;;;;17.70;11.00;;;3.10;99.90;;;;;;5052478;28;20041;-62
2023/01/24 02:28:51;;;;;;;16.33;11.20;;;3.10;99.90;;;;;;5055149;28;20083;-62
2023/01/24 02:31:17;;;;;;;17.27;10.98;;;3.10;99.90;;;;;;5036657;28;20045;-62
2023/01/24 02:33:42;;;;;;;16.23;10.27;;;3.10;99.90;;;;;;5054150;28;20238;-62
2023/01/24 02:36:36;;;;;;;16.70;10.05;;;3.20;99.90;;;;;;5054080;28;20048;-61
2023/01/24 02:39:04;;;;;;;18.63;11.25;;;3.20;99.90;;;;;;5054285;28;20045;-61
2023/01/24 02:41:41;;;;;;;17.52;10.55;;;3.20;99.90;;;;;;5053902;28;20037;-61
2023/01/24 02:44:11;;;;;;;18.05;10.93;;;3.20;99.90;;;;;;5053322;28;20051;-61
2023/01/24 02:46:38;;;;;;;17.85;10.88;;;3.20;99.90;;;;;;5052636;28;20044;-61
2023/01/24 02:49:08;;;;;;;16.23;9.85;;;3.20;99.90;;;;;;5054496;28;20045;-61
2023/01/24 02:54:17;;;;;;;18.38;11.05;;;3.20;99.90;;;;;;5053337;28;20083;-62
2023/01/24 02:59:27;;;;;;;19.75;13.20;;;3.20;99.90;;;;;;5052942;28;20374;-61
2023/01/24 03:01:53;;;;;;;18.20;11.38;;;3.20;99.90;;;;;;5035746;28;20043;-61
2023/01/24 03:04:19;;;;;;;16.10;10.80;;;3.20;99.90;;;;;;5052922;28;20446;-61
2023/01/24 03:06:44;;;;;;;20.25;12.32;;;3.20;99.90;;;;;;5052294;28;20483;-61
2023/01/24 03:09:19;;;;;;;16.70;10.88;;;3.20;99.90;;;;;;5052443;28;20124;-61
2023/01/24 03:11:49;;;;;;;16.05;11.25;;;3.20;99.90;;;;;;5036365;28;20091;-61
2023/01/24 03:36:19;;;;;;;15.85;9.70;;;3.20;99.90;;;;;;5051168;28;20053;-61
2023/01/24 03:41:30;;;;;;;14.43;9.23;;;3.20;99.90;;;;;;5052947;28;20143;-61
2023/01/24 03:43:56;;;;;;;14.77;8.65;;;3.20;99.90;;;;;;5035742;28;20072;-61
2023/01/24 03:46:22;;;;;;;14.55;9.15;;;3.30;99.90;;;;;;5035417;28;20041;-61
2023/01/24 03:48:47;;;;;;;12.63;8.50;;;3.30;99.90;;;;;;5053651;28;20045;-61
2023/01/24 03:53:57;;;;;;;14.63;9.05;;;3.30;99.90;;;;;;5052442;28;20037;-61
2023/01/24 03:56:23;;;;;;;16.27;9.07;;;3.30;99.90;;;;;;5051227;28;20482;-61
2023/01/24 03:58:48;;;;;;;13.98;8.40;;;3.30;99.90;;;;;;5052873;28;20119;-61
2023/01/24 04:01:14;;;;;;;16.88;9.77;;;3.20;99.90;;;;;;5051663;28;20052;-62
2023/01/24 04:03:40;;;;;;;14.90;9.80;;;3.30;99.90;;;;;;5050745;28;20041;-61
2023/01/24 04:06:06;;;;;;;15.85;10.35;;;3.30;99.90;;;;;;5052673;28;20055;-61
2023/01/24 04:08:31;;;;;;;15.43;9.77;;;3.30;99.90;;;;;;5034872;28;20048;-61
2023/01/24 04:10:57;;;;;;;15.43;10.30;;;3.30;99.90;;;;;;5034363;28;20036;-61
2023/01/24 04:13:23;;;;;;;15.27;9.75;;;3.30;99.90;;;;;;5051366;28;20068;-61
2023/01/24 04:15:49;;;;;;;13.75;9.07;;;3.30;99.90;;;;;;5034928;28;20425;-62
2023/01/24 04:18:14;;;;;;;16.10;10.35;;;3.30;99.90;;;;;;5034174;28;20095;-61
2023/01/24 04:20:40;;;;;;;15.60;9.60;;;3.30;99.90;;;;;;5051250;28;20044;-61
2023/01/24 04:23:07;;;;;;;15.25;9.65;;;3.30;99.90;;;;;;5051416;28;20040;-62
2023/01/24 04:25:34;;;;;;;16.60;9.73;;;3.30;99.90;;;;;;5050402;28;20041;-61
2023/01/24 04:28:00;;;;;;;15.60;9.60;;;3.30;99.90;;;;;;5051498;28;20131;-61
2023/01/24 04:30:26;;;;;;;14.38;9.43;;;3.30;99.90;;;;;;5050799;28;20037;-62
2023/01/24 04:32:52;;;;;;;14.50;9.65;;;3.30;99.90;;;;;;5050648;28;20378;-61
2023/01/24 04:35:21;;;;;;;13.88;9.50;;;3.30;99.90;;;;;;5051110;28;20041;-61
2023/01/24 04:37:47;;;;;;;15.40;10.32;;;3.30;99.90;;;;;;5050877;28;20120;-61
2023/01/24 04:40:13;;;;;;;18.38;10.38;;;3.20;99.90;;;;;;5050415;28;20452;-62
2023/01/24 04:42:42;;;;;;;16.00;9.93;;;3.20;99.90;;;;;;5051070;28;20123;-62
2023/01/24 04:45:09;;;;;;;14.43;9.55;;;3.30;99.90;;;;;;5050325;28;20043;-61
2023/01/24 04:47:34;;;;;;;16.13;9.98;;;3.20;99.90;;;;;;5050765;28;20072;-61
2023/01/24 04:50:00;;;;;;;17.60;9.90;;;3.20;99.90;;;;;;5050935;28;20073;-61
2023/01/24 04:52:26;;;;;;;14.48;8.48;;;3.20;99.90;;;;;;5051156;28;20032;-61
2023/01/24 04:54:51;;;;;;;15.05;8.82;;;3.20;99.90;;;;;;5051015;28;20069;-61
2023/01/24 04:57:18;;;;;;;14.25;9.35;;;3.20;99.90;;;;;;5050925;28;20087;-61
2023/01/24 04:59:43;;;;;;;14.02;8.15;;;3.20;99.90;;;;;;5049121;28;20072;-62
2023/01/24 05:02:09;;;;;;;13.65;8.60;;;3.30;99.90;;;;;;5050697;28;20080;-61
2023/01/24 05:04:35;;;;;;;12.82;7.70;;;3.30;99.90;;;;;;5051803;28;20481;-61
2023/01/24 05:07:01;;;;;;;14.27;9.23;;;3.30;99.90;;;;;;5051615;28;20485;-61
2023/01/24 05:09:26;;;;;;;13.88;8.77;;;3.30;99.90;;;;;;5051618;28;20072;-61
2023/01/24 05:11:52;;;;;;;13.80;8.85;;;3.30;99.90;;;;;;5052012;28;20067;-61
2023/01/24 05:14:18;;;;;;;11.73;8.07;;;3.30;99.90;;;;;;5051164;28;20125;-61
2023/01/24 05:16:43;;;;;;;12.75;7.60;;;3.30;99.90;;;;;;5051814;28;20151;-61
2023/01/24 05:19:09;;;;;;;14.23;8.80;;;3.30;99.90;;;;;;5033872;28;20048;-61
2023/01/24 05:21:35;;;;;;;15.05;9.55;;;3.30;99.90;;;;;;5049706;28;20128;-61
2023/01/24 05:24:00;;;;;;;13.77;8.10;;;3.30;99.90;;;;;;5050774;28;20044;-61
2023/01/24 05:26:27;;;;;;;12.40;7.82;;;3.30;99.90;;;;;;5050316;28;20460;-61
2023/01/24 05:28:53;;;;;;;13.90;8.55;;;3.30;99.90;;;;;;5033365;28;20436;-61
2023/01/24 05:31:19;;;;;;;13.40;7.57;;;3.30;99.90;;;;;;5050480;28;20064;-61
2023/01/24 05:33:45;;;;;;;13.98;8.57;;;3.30;99.90;;;;;;5050406;28;20118;-62
2023/01/24 05:36:20;;;;;;;11.77;7.75;;;3.30;99.90;;;;;;5049478;28;20409;-61
2023/01/24 05:38:46;;;;;;;15.38;8.45;;;3.30;99.90;;;;;;5033746;28;20149;-61
2023/01/24 05:41:16;;;;;;;14.10;8.52;;;3.30;99.90;;;;;;5050213;28;20045;-62
2023/01/24 05:43:42;;;;;;;28.38;17.90;;;3.20;99.90;;;;;;5050670;28;20041;-61
2023/01/24 05:46:29;;;;;;;16.27;10.20;;;3.30;99.90;;;;;;5033520;28;20502;-61
2023/01/24 05:48:55;;;;;;;16.73;10.88;;;3.20;99.90;;;;;;5049999;28;20060;-61
2023/01/24 05:51:20;;;;;;;14.95;9.07;;;3.20;99.90;;;;;;5050286;28;20039;-61
2023/01/24 05:53:47;;;;;;;21.42;17.92;;;3.20;99.90;;;;;;5050285;28;20404;-61
2023/01/24 05:56:17;;;;;;;21.83;18.48;;;3.20;99.90;;;;;;5049311;28;20044;-61
2023/01/24 05:58:44;;;;;;;15.82;10.55;;;3.30;99.90;;;;;;5051422;28;20041;-61
2023/01/24 06:01:13;;;;;;;15.25;10.45;;;3.20;99.90;;;;;;5034247;28;20044;-61
2023/01/24 06:03:40;;;;;;;16.95;11.10;;;3.20;99.90;;;;;;5033510;28;20472;-61
2023/01/24 06:06:08;;;;;;;17.23;11.75;;;3.20;99.90;;;;;;5050771;28;20052;-61
2023/01/24 06:08:34;;;;;;;17.05;11.05;;;3.20;99.90;;;;;;5051676;28;20049;-61
2023/01/24 06:11:17;;;;;;;18.17;12.32;;;3.20;99.90;;;;;;5052215;28;20504;-61
2023/01/24 06:13:43;;;;;;;17.90;11.40;;;3.30;99.90;;;;;;5036855;28;20045;-61
2023/01/24 06:16:30;;;;;;;18.58;11.38;;;3.20;99.90;;;;;;5037328;28;20050;-61
2023/01/24 06:18:56;;;;;;;16.30;10.75;;;3.20;99.90;;;;;;5053598;28;20401;-61
2023/01/24 06:21:41;;;;;;;15.60;10.65;;;3.20;99.90;;;;;;5054129;28;20044;-61
2023/01/24 06:24:18;;;;;;;14.68;9.52;;;3.20;99.90;;;;;;5036469;28;20051;-61
2023/01/24 06:26:45;;;;;;;16.70;10.73;;;3.20;99.90;;;;;;5036532;28;20044;-61
2023/01/24 06:29:12;;;;;;;19.77;12.70;;;3.20;99.90;;;;;;5054947;28;20071;-62
2023/01/24 06:32:03;;;;;;;29.75;17.58;;;3.20;99.90;;;;;;5052300;28;20106;-61
2023/01/24 06:34:41;;;;;;;21.90;12.73;;;3.20;99.90;;;;;;5053451;28;20033;-61
2023/01/24 06:37:24;;;;;;;20.30;12.82;;;3.20;99.90;;;;;;5053557;28;20052;-62
2023/01/24 06:39:51;;;;;;;27.52;15.73;;;3.10;99.90;;;;;;5052112;28;20053;-61
2023/01/24 06:42:22;;;;;;;53.28;29.27;;;3.10;99.90;;;;;;5053768;28;20124;-61
2023/01/24 06:44:48;;;;;;;27.98;19.92;;;3.20;99.90;;;;;;5052028;28;20045;-61
2023/01/24 06:47:15;;;;;;;19.17;13.10;;;3.10;99.90;;;;;;5053328;28;20417;-61
2023/01/24 06:49:41;;;;;;;20.55;12.30;;;3.10;99.90;;;;;;5052807;28;20044;-62
2023/01/24 06:52:07;;;;;;;30.73;21.33;;;3.10;99.90;;;;;;5052380;28;20033;-61
2023/01/24 06:54:34;;;;;;;23.73;16.17;;;3.10;99.90;;;;;;5036317;28;20042;-62
2023/01/24 06:57:00;;;;;;;19.67;12.93;;;3.10;99.90;;;;;;5053474;28;20049;-62
2023/01/24 06:59:25;;;;;;;22.15;13.13;;;3.00;99.90;;;;;;5053538;28;20397;-62
2023/01/24 07:01:51;;;;;;;20.48;13.98;;;3.10;99.90;;;;;;5053114;28;20130;-62
2023/01/24 07:04:17;;;;;;;19.27;13.43;;;3.00;99.90;;;;;;5052992;28;20041;-62
2023/01/24 07:06:43;;;;;;;22.55;15.63;;;3.10;99.90;;;;;;5052690;28;20044;-62
2023/01/24 07:09:09;;;;;;;19.55;13.40;;;3.10;99.90;;;;;;5036199;28;20045;-62
2023/01/24 07:11:35;;;;;;;20.63;14.50;;;3.00;99.90;;;;;;5053475;28;20048;-62
2023/01/24 07:14:06;;;;;;;21.70;14.38;;;3.10;99.90;;;;;;5053567;28;20461;-62
2023/01/24 07:16:31;;;;;;;22.40;13.95;;;3.10;99.90;;;;;;5035806;28;20037;-62
2023/01/24 07:18:57;;;;;;;26.30;15.77;;;3.00;99.90;;;;;;5052735;28;20455;-62
2023/01/24 07:21:23;;;;;;;24.80;15.23;;;3.00;99.90;;;;;;5039810;28;20033;-62
2023/01/24 07:23:52;;;;;;;20.63;14.35;;;3.10;99.90;;;;;;5046702;28;20060;-62
2023/01/24 07:26:18;;;;;;;23.50;14.48;;;3.00;99.90;;;;;;5050750;28;20041;-62
2023/01/24 07:28:44;;;;;;;24.73;15.55;;;3.00;99.90;;;;;;5041108;28;20076;-62
2023/01/24 07:31:14;;;;;;;21.70;14.82;;;3.00;99.90;;;;;;5034187;28;20068;-62
2023/01/24 07:33:40;;;;;;;22.35;15.75;;;3.00;99.90;;;;;;5026432;28;20033;-62
2023/01/24 07:36:14;;;;;;;20.00;14.80;;;3.00;99.90;;;;;;5031480;28;20076;-62
2023/01/24 07:38:39;;;;;;;28.75;16.40;;;3.00;99.90;;;;;;5046660;28;20460;-61
2023/01/24 07:41:09;;;;;;;23.27;14.85;;;3.00;99.90;;;;;;5051576;28;20143;-62
2023/01/24 07:43:35;;;;;;;25.25;15.82;;;3.00;99.90;;;;;;5051602;28;20048;-62
2023/01/24 07:46:01;;;;;;;22.45;14.70;;;3.00;99.90;;;;;;5048522;28;20033;-62
2023/01/24 07:48:26;;;;;;;24.60;15.75;;;3.00;99.90;;;;;;5043249;28;20425;-62
2023/01/24 07:50:52;;;;;;;23.33;14.60;;;3.00;99.90;;;;;;5015785;28;20041;-62
2023/01/24 07:53:18;;;;;;;20.80;13.57;;;3.00;99.90;;;;;;5016869;28;20369;-62
2023/01/24 07:55:43;;;;;;;22.65;14.63;;;3.00;99.90;;;;;;5014540;28;20083;-62
2023/01/24 07:58:09;;;;;;;21.63;14.05;;;3.00;99.90;;;;;;5032019;28;20120;-62
2023/01/24 08:00:35;;;;;;;21.83;13.90;;;3.00;99.90;;;;;;5033973;28;20201;-62
2023/01/24 08:03:00;;;;;;;23.80;14.38;;;3.00;99.90;;;;;;5031224;28;20079;-62
2023/01/24 08:05:26;;;;;;;21.70;14.23;;;3.00;99.90;;;;;;5036885;28;20072;-62
2023/01/24 08:07:54;;;;;;;27.45;16.13;;;2.90;99.90;;;;;;5042556;28;20045;-62
2023/01/24 08:10:21;;;;;;;25.60;15.10;;;2.90;99.90;;;;;;5032562;28;20044;-62
2023/01/24 08:12:49;;;;;;;25.80;17.45;;;2.90;99.90;;;;;;5031488;28;20052;-62
2023/01/24 08:15:15;;;;;;;23.52;14.30;;;2.90;99.90;;;;;;5044271;28;20048;-62
2023/01/24 08:17:41;;;;;;;26.05;16.83;;;2.90;99.90;;;;;;5046122;28;20377;-62
2023/01/24 08:20:08;;;;;;;45.63;26.60;;;2.90;99.90;;;;;;5029318;28;20111;-62
2023/01/24 08:22:34;;;;;;;42.55;23.48;;;2.90;99.90;;;;;;5029395;28;20493;-62
2023/01/24 08:24:59;;;;;;;107.85;48.78;;;2.90;99.90;;;;;;5022300;28;20098;-62
2023/01/24 08:27:25;;;;;;;143.38;63.30;;;3.00;99.90;;;;;;5038455;28;20077;-61
2023/01/24 08:29:51;;;;;;;67.32;29.95;;;2.90;99.90;;;;;;5034307;28;20055;-62
2023/01/24 08:32:16;;;;;;;54.13;27.15;;;3.00;99.90;;;;;;5028565;28;20037;-62
2023/01/24 08:34:43;;;;;;;161.82;65.90;;;3.00;99.90;;;;;;5028424;28;20044;-62
2023/01/24 08:37:09;;;;;;;171.57;71.97;;;3.00;99.90;;;;;;5027597;28;20079;-62
2023/01/24 08:39:34;;;;;;;311.48;129.60;;;3.00;99.90;;;;;;5010948;28;20041;-62
2023/01/24 08:42:00;;;;;;;53.03;28.27;;;3.00;99.90;;;;;;5012532;28;20045;-62
2023/01/24 08:44:26;;;;;;;35.47;20.70;;;3.00;99.90;;;;;;5039548;28;20045;-62
2023/01/24 08:46:51;;;;;;;32.45;20.73;;;3.00;99.90;;;;;;5050038;28;20433;-62
2023/01/24 08:49:17;;;;;;;30.10;20.50;;;2.90;99.90;;;;;;5048507;28;20572;-62
2023/01/24 08:51:43;;;;;;;27.90;18.48;;;3.00;99.90;;;;;;5048722;28;20063;-62
2023/01/24 08:54:08;;;;;;;28.25;17.60;;;3.00;99.90;;;;;;5048706;28;20037;-62
2023/01/24 08:56:34;;;;;;;26.13;16.27;;;3.00;99.90;;;;;;5048127;28;20040;-62
2023/01/24 08:59:00;;;;;;;25.20;16.92;;;3.00;99.90;;;;;;5039384;28;20045;-62
2023/01/24 09:01:26;;;;;;;25.88;16.33;;;3.00;99.90;;;;;;5028696;28;20160;-61
2023/01/24 09:03:55;;;;;;;26.42;16.88;;;3.00;99.90;;;;;;5016560;28;20513;-62
2023/01/24 09:06:21;;;;;;;35.78;24.48;;;3.00;99.90;;;;;;5036924;28;20095;-62
2023/01/24 09:08:47;;;;;;;41.63;22.08;;;3.00;99.90;;;;;;5016918;28;20049;-62
2023/01/24 09:11:13;;;;;;;60.03;35.80;;;3.00;99.90;;;;;;5044223;28;20773;-62
2023/01/24 09:13:39;;;;;;;39.47;24.15;;;3.00;99.90;;;;;;5030629;28;20178;-62
2023/01/24 09:16:04;;;;;;;35.50;22.33;;;3.00;99.90;;;;;;5031936;28;20193;-62
2023/01/24 09:18:30;;;;;;;29.05;18.25;;;3.00;99.90;;;;;;5047864;28;20468;-62
2023/01/24 09:21:39;;;;;;;27.88;16.90;;;3.00;99.90;;;;;;5044376;28;20044;-62
2023/01/24 09:24:06;;;;;;;32.40;17.60;;;3.00;99.90;;;;;;5025637;28;20113;-61
2023/01/24 09:26:31;;;;;;;26.92;16.83;;;3.10;99.90;;;;;;5065262;28;20051;-62
2023/01/24 09:28:57;;;;;;;32.70;21.38;;;3.10;99.90;;;;;;5018490;28;20049;-63
2023/01/24 09:31:22;;;;;;;28.35;17.60;;;3.10;99.90;;;;;;5028011;28;20084;-62
2023/01/24 09:33:48;;;;;;;30.08;18.80;;;3.10;99.90;;;;;;5026613;28;20045;-62
2023/01/24 09:36:14;;;;;;;28.83;17.40;;;3.10;99.90;;;;;;5027504;28;20060;-62
2023/01/24 09:38:39;;;;;;;25.42;15.80;;;3.10;99.90;;;;;;5027572;28;20045;-62
2023/01/24 09:41:23;;;;;;;22.48;15.55;;;3.10;99.90;;;;;;5027181;28;20528;-63
2023/01/24 09:43:52;;;;;;;25.15;15.93;;;3.00;99.90;;;;;;5011075;28;20132;-62
2023/01/24 09:46:32;;;;;;;42.40;25.90;;;3.00;99.90;;;;;;5031243;28;20470;-63
2023/01/24 09:49:11;;;;;;;53.15;32.30;;;3.00;99.90;;;;;;5014793;28;20609;-63
2023/01/24 09:51:44;;;;;;;35.72;23.15;;;3.00;99.90;;;;;;5047143;28;20045;-63
2023/01/24 09:54:18;;;;;;;30.92;20.92;;;3.00;99.90;;;;;;5027640;28;20037;-63
2023/01/24 09:56:46;;;;;;;26.60;18.73;;;3.00;99.90;;;;;;5035069;28;20956;-63
2023/01/24 09:59:15;;;;;;;31.38;18.50;;;3.00;99.90;;;;;;5043955;28;20041;-63
2023/01/24 10:01:40;;;;;;;26.08;17.60;;;3.00;99.90;;;;;;5013690;28;20048;-63
2023/01/24 10:04:35;;;;;;;21.73;14.63;;;3.00;99.90;;;;;;5031057;28;20041;-63
2023/01/24 10:07:29;;;;;;;22.75;14.52;;;3.00;99.90;;;;;;5049012;28;20044;-63
2023/01/24 10:10:32;;;;;;;24.50;15.50;;;3.10;99.90;;;;;;5036507;28;20041;-63
2023/01/24 10:13:20;;;;;;;27.65;17.10;;;3.00;99.90;;;;;;5035918;28;20048;-63
2023/01/24 10:16:09;;;;;;;22.35;14.50;;;3.00;99.90;;;;;;5040192;28;20119;-63
2023/01/24 10:19:04;;;;;;;19.02;13.55;;;3.00;99.90;;;;;;5018980;28;20494;-63
2023/01/24 10:21:32;;;;;;;23.48;14.95;;;3.00;99.90;;;;;;5037983;28;20045;-63
2023/01/24 10:24:06;;;;;;;23.00;15.40;;;3.00;99.90;;;;;;5032076;28;20045;-63
2023/01/24 10:26:38;;;;;;;24.55;16.55;;;2.90;99.90;;;;;;5032331;28;20081;-63
2023/01/24 10:29:13;;;;;;;22.85;15.50;;;3.00;99.90;;;;;;5040348;28;20098;-63
2023/01/24 10:32:04;;;;;;;22.35;14.25;;;3.00;99.90;;;;;;5030990;28;20042;-63
2023/01/24 10:34:43;;;;;;;23.92;16.45;;;3.00;99.90;;;;;;5015366;28;20049;-63
2023/01/24 10:37:09;;;;;;;22.45;14.30;;;3.00;99.90;;;;;;5055563;28;20441;-63
2023/01/24 10:39:35;;;;;;;21.00;14.55;;;3.00;99.90;;;;;;5029877;28;20045;-63
2023/01/24 10:42:08;;;;;;;20.10;13.80;;;3.00;99.90;;;;;;5014326;28;20053;-64
2023/01/24 10:44:36;;;;;;;20.20;12.88;;;3.00;99.90;;;;;;5029812;28;20076;-63
2023/01/24 10:47:21;;;;;;;40.97;22.58;;;3.10;99.90;;;;;;5050453;28;20482;-63
2023/01/24 10:49:51;;;;;;;;;;;3.10;99.90;;;;;;5034066;28;20045;-63
2023/01/24 10:52:21;;;;;;;90.45;54.45;;;3.00;99.90;;;;;;5053186;28;19916;-64
2023/01/24 10:54:53;;;;;;;26.55;16.98;;;3.00;99.90;;;;;;5013511;28;20051;-63
2023/01/24 10:57:38;;;;;;;31.95;24.33;;;3.00;99.90;;;;;;5048288;28;20113;-64
2023/01/24 11:00:15;;;;;;;21.23;14.20;;;3.00;99.90;;;;;;5025621;28;20348;-63
2023/01/24 11:02:45;;;;;;;27.17;22.90;;;3.00;99.90;;;;;;5029904;28;20046;-63
2023/01/24 11:05:13;;;;;;;20.45;14.10;;;3.00;99.90;;;;;;5032587;28;20042;-63
2023/01/24 11:07:46;;;;;;;49.05;30.50;;;3.00;99.90;;;;;;5032264;28;20041;-63
2023/01/24 11:10:18;;;;;;;32.53;22.08;;;3.00;99.90;;;;;;5052285;28;20052;-63
2023/01/24 11:13:23;;;;;;;19.75;13.15;;;3.00;99.90;;;;;;5049650;28;20911;-63
2023/01/24 11:15:53;;;;;;;24.63;15.95;;;3.00;99.90;;;;;;5049652;28;20489;-63
2023/01/24 11:18:27;;;;;;;21.38;15.13;;;3.00;99.90;;;;;;5047164;28;20829;-63
2023/01/24 11:21:15;;;;;;;24.40;15.85;;;3.00;99.90;;;;;;5042372;28;20087;-63
2023/01/24 11:23:42;;;;;;;20.35;14.38;;;3.00;99.90;;;;;;5041941;28;20124;-63
2023/01/24 11:26:24;;;;;;;21.17;13.88;;;3.00;99.90;;;;;;5034380;28;20091;-63
2023/01/24 11:29:16;;;;;;;26.52;15.40;;;3.00;99.90;;;;;;5032186;28;20041;-63
2023/01/24 11:31:56;;;;;;;24.80;16.52;;;3.10;99.90;;;;;;5029799;28;20501;-63
2023/01/24 11:34:33;;;;;;;18.83;12.63;;;3.10;99.90;;;;;;5033218;28;20471;-62
2023/01/24 11:37:11;;;;;;;22.27;13.40;;;3.10;99.90;;;;;;5032839;28;20049;-63
2023/01/24 11:39:57;;;;;;;23.33;14.02;;;3.10;99.90;;;;;;5033393;28;20125;-63
2023/01/24 11:42:36;;;;;;;19.08;12.95;;;3.10;99.90;;;;;;5024748;28;20049;-63
2023/01/24 11:45:21;;;;;;;23.65;15.13;;;3.10;99.90;;;;;;5019896;28;20371;-63
2023/01/24 11:48:14;;;;;;;22.00;15.73;;;3.10;99.90;;;;;;5033649;28;20045;-62
2023/01/24 11:51:08;;;;;;;21.85;14.05;;;3.10;99.90;;;;;;5033694;28;20069;-63
2023/01/24 11:54:19;;;;;;;18.73;13.00;;;3.10;99.90;;;;;;5019252;28;20060;-62
2023/01/24 11:57:08;;;;;;;21.63;14.23;;;3.20;99.90;;;;;;5022157;28;20049;-63
2023/01/24 11:59:39;;;;;;;19.90;13.45;;;3.20;99.90;;;;;;5032927;28;20414;-63
2023/01/24 12:02:30;;;;;;;18.85;13.30;;;3.20;99.90;;;;;;5032715;28;20049;-63
2023/01/24 12:05:26;;;;;;;18.52;12.27;;;3.20;99.90;;;;;;5031932;28;20047;-63
2023/01/24 12:08:16;;;;;;;18.10;12.38;;;3.20;99.90;;;;;;5032981;28;20060;-63
2023/01/24 12:10:51;;;;;;;23.25;17.00;;;3.20;99.90;;;;;;5015136;28;20041;-63
2023/01/24 12:13:38;;;;;;;21.50;16.17;;;3.30;99.90;;;;;;5033075;28;20421;-63
2023/01/24 12:16:15;;;;;;;18.23;13.10;;;3.20;99.90;;;;;;5032486;28;20044;-63
2023/01/24 12:18:56;;;;;;;17.05;11.25;;;3.30;99.90;;;;;;5031430;28;20110;-63
2023/01/24 12:21:23;;;;;;;18.02;12.02;;;3.30;99.90;;;;;;5031878;28;20041;-63
2023/01/24 12:23:59;;;;;;;18.33;12.35;;;3.30;99.90;;;;;;5030494;28;20364;-63
2023/01/24 12:26:37;;;;;;;19.25;12.50;;;3.30;99.90;;;;;;5031203;28;20076;-63
2023/01/24 12:29:22;;;;;;;21.30;15.40;;;3.30;99.90;;;;;;5031612;28;20077;-63
2023/01/24 12:32:23;;;;;;;18.85;12.55;;;3.30;99.90;;;;;;5031163;28;20030;-63
2023/01/24 12:35:00;;;;;;;19.02;12.48;;;3.20;99.90;;;;;;5023705;28;20552;-64
2023/01/24 12:37:57;;;;;;;19.85;13.15;;;3.20;99.90;;;;;;5030615;28;20049;-63
2023/01/24 12:40:32;;;;;;;21.77;13.30;;;3.20;99.90;;;;;;5031473;28;20179;-63
2023/01/24 12:43:15;;;;;;;19.23;12.38;;;3.20;99.90;;;;;;5031249;28;20083;-63
2023/01/24 12:46:04;;;;;;;19.25;14.00;;;3.20;99.90;;;;;;5031138;28;20038;-63
2023/01/24 12:48:42;;;;;;;26.98;16.02;;;3.20;99.90;;;;;;5030478;28;20046;-63
2023/01/24 12:51:24;;;;;;;18.45;11.50;;;3.20;99.90;;;;;;5031660;28;20044;-63
2023/01/24 12:54:13;;;;;;;18.35;11.85;;;3.20;99.90;;;;;;5030905;28;20041;-63
2023/01/24 12:56:58;;;;;;;18.05;11.43;;;3.30;99.90;;;;;;5030585;28;20075;-63
2023/01/24 12:59:30;;;;;;;17.58;12.07;;;3.20;99.90;;;;;;5013769;28;20095;-63
2023/01/24 13:02:17;;;;;;;16.67;11.73;;;3.20;99.90;;;;;;5032524;28;20084;-63
2023/01/24 13:05:01;;;;;;;17.13;11.27;;;3.20;99.90;;;;;;5029937;28;20080;-63
2023/01/24 13:07:51;;;;;;;17.27;10.95;;;3.30;99.90;;;;;;5030670;28;20128;-63
2023/01/24 13:10:19;;;;;;;20.50;11.77;;;3.20;99.90;;;;;;5032248;28;20073;-63
2023/01/24 13:12:46;;;;;;;19.95;13.05;;;3.20;99.90;;;;;;5030070;28;20056;-63
2023/01/24 13:15:31;;;;;;;20.90;13.25;;;3.20;99.90;;;;;;5030900;28;20041;-63
2023/01/24 13:18:17;;;;;;;17.95;10.30;;;3.30;99.90;;;;;;5032267;28;20065;-63
2023/01/24 13:21:12;;;;;;;18.45;12.85;;;3.20;99.90;;;;;;5011914;28;20045;-64
2023/01/24 13:23:59;;;;;;;19.30;11.48;;;3.20;99.90;;;;;;5035883;28;20120;-63
2023/01/24 13:26:46;;;;;;;18.13;11.77;;;3.10;99.90;;;;;;5035134;28;20046;-63
2023/01/24 13:29:50;;;;;;;19.65;12.13;;;3.10;99.90;;;;;;5036217;28;20049;-63
2023/01/24 13:32:18;;;;;;;20.65;12.77;;;3.10;99.90;;;;;;4994861;28;20519;-63
2023/01/24 13:34:49;;;;;;;20.25;12.93;;;3.10;99.90;;;;;;4976683;28;20129;-64
2023/01/24 13:37:20;;;;;;;20.05;11.80;;;3.10;99.90;;;;;;5006186;28;20047;-63
2023/01/24 13:39:47;;;;;;;17.13;10.93;;;3.10;99.90;;;;;;5017203;28;20486;-64
2023/01/24 13:42:22;;;;;;;17.05;11.43;;;3.10;99.90;;;;;;5034624;28;20498;-63